»·PEaware :: N787PG KVUO-8W5

N787PG :: KVUO-8W5

FLIGHT INFORMATION

Flight Status: Arrived
Operator: Privately registered:
United States
More flights under this callsign
Pilot: Gareth S. (19921)
Aircraft: CIRRUS SR-22 TURBO
(S22T)
More flights by this aircraft type
Origin: KVUO Pearson
United States
Destination: 8W5 Apex Airpark
United States
More flights between these airports :: More routes between these airports
Route: BTG V23 MALAY V287 OLM V165 JUVGA
File this flight plan on PilotEdge
Remarks:
Altitude:
(Current/Filed)
8,000ft
Speed:
(Current/Filed)
150kts
Departed: 06-Nov-20 01:35 PM
Arrived: 06-Nov-20 02:30 PM
Distance/Time
Traveled:
122nm/0:55
Distance/Time
To Go:
Arrived

Flight Plot

Page will automatically refresh every two minutes.

Flight plan parsing failed; only flown route is shown


Map Options




Map Legend


Flown Route
Filed Route
Departure Airport
Arrival Airport
Navaid (VOR, NDB)
Fix

Horizontal Profiles

Position Reports

Time Latitude Longitude Heading Altitude Ground
Speed
06-Nov-20 13:01 45.621114 -122.652826 359 25ft 0kts
06-Nov-20 13:02 45.621114 -122.652826 359 25ft 0kts
06-Nov-20 13:03 45.621114 -122.652826 359 25ft 0kts
06-Nov-20 13:04 45.621114 -122.652826 359 25ft 0kts
06-Nov-20 13:05 45.621114 -122.652826 359 25ft 0kts
06-Nov-20 13:06 45.621114 -122.652826 359 25ft 0kts
06-Nov-20 13:07 45.621114 -122.652826 359 25ft 0kts
06-Nov-20 13:08 45.621114 -122.652826 359 25ft 0kts
06-Nov-20 13:09 45.621114 -122.652826 359 25ft 0kts
06-Nov-20 13:10 45.621114 -122.652826 359 25ft 0kts
06-Nov-20 13:12 45.621114 -122.652826 359 25ft 0kts
06-Nov-20 13:13 45.621114 -122.652826 359 25ft 0kts
06-Nov-20 13:14 45.621114 -122.652826 359 25ft 0kts
06-Nov-20 13:15 45.621114 -122.652826 359 25ft 0kts
06-Nov-20 13:16 45.621114 -122.652826 359 25ft 0kts
06-Nov-20 13:17 45.621114 -122.652826 359 25ft 0kts
06-Nov-20 13:18 45.621114 -122.652826 359 25ft 0kts
06-Nov-20 13:19 45.621114 -122.652826 359 25ft 0kts
06-Nov-20 13:20 45.621114 -122.652826 359 25ft 0kts
06-Nov-20 13:21 45.621114 -122.652826 359 25ft 0kts
06-Nov-20 13:22 45.621114 -122.652826 359 25ft 0kts
06-Nov-20 13:23 45.621114 -122.652826 359 25ft 0kts
06-Nov-20 13:24 45.621114 -122.652826 359 25ft 0kts
06-Nov-20 13:25 45.621114 -122.652826 359 25ft 0kts
06-Nov-20 13:26 45.621224 -122.652671 76 25ft 3kts
06-Nov-20 13:27 45.620389 -122.650878 63 24ft 2kts
06-Nov-20 13:28 45.620433 -122.650675 106 24ft 0kts
06-Nov-20 13:29 45.620433 -122.650675 106 24ft 0kts
06-Nov-20 13:29 45.620382 -122.650510 123 24ft 3kts
06-Nov-20 13:31 45.620216 -122.650274 136 25ft 0kts
06-Nov-20 13:31 45.620216 -122.650274 136 25ft 0kts
06-Nov-20 13:33 45.620216 -122.650273 136 25ft 0kts
06-Nov-20 13:33 45.619840 -122.650403 283 25ft 0kts
06-Nov-20 13:35 45.623188 -122.684396 277 911ft 115kts
06-Nov-20 13:35 45.644608 -122.694328 50 1851ft 139kts
06-Nov-20 13:36 45.669941 -122.659012 32 3587ft 114kts
06-Nov-20 13:37 45.696632 -122.634217 26 5135ft 116kts
06-Nov-20 13:38 45.726781 -122.608970 25 6468ft 129kts
06-Nov-20 13:39 45.759630 -122.595161 349 7893ft 128kts
06-Nov-20 13:40 45.803407 -122.605495 349 8010ft 177kts
06-Nov-20 13:41 45.852454 -122.617541 349 7996ft 172kts
06-Nov-20 13:42 45.899904 -122.629345 349 7998ft 169kts
06-Nov-20 13:43 45.947017 -122.641099 349 7999ft 169kts
06-Nov-20 13:44 45.994246 -122.652900 349 7990ft 170kts
06-Nov-20 13:45 46.041386 -122.664708 349 7989ft 169kts
06-Nov-20 13:46 46.088370 -122.676483 349 7990ft 168kts
06-Nov-20 13:47 46.135369 -122.688286 350 8005ft 169kts
06-Nov-20 13:48 46.182332 -122.700105 350 8018ft 169kts
06-Nov-20 13:49 46.229076 -122.711890 350 8031ft 168kts
06-Nov-20 13:50 46.275939 -122.723719 350 8037ft 168kts
06-Nov-20 13:51 46.323284 -122.735695 350 8036ft 169kts
06-Nov-20 13:52 46.371340 -122.747869 350 8036ft 169kts
06-Nov-20 13:53 46.418801 -122.759915 350 8036ft 169kts
06-Nov-20 13:54 46.465914 -122.771898 350 8036ft 169kts
06-Nov-20 13:55 46.512888 -122.783862 350 8036ft 169kts
06-Nov-20 13:56 46.560169 -122.795928 350 8036ft 169kts
06-Nov-20 13:57 46.606830 -122.807861 350 8036ft 168kts
06-Nov-20 13:58 46.653631 -122.819840 350 8036ft 168kts
06-Nov-20 13:59 46.700249 -122.831798 350 8036ft 168kts
06-Nov-20 14:00 46.746927 -122.843789 350 8036ft 168kts
06-Nov-20 14:01 46.793466 -122.855778 351 8039ft 167kts
06-Nov-20 14:02 46.840061 -122.867789 351 8042ft 167kts
06-Nov-20 14:03 46.886427 -122.879773 351 8045ft 167kts
06-Nov-20 14:04 46.932571 -122.891712 351 8044ft 167kts
06-Nov-20 14:05 46.978884 -122.900748 5 8038ft 166kts
06-Nov-20 14:06 47.025354 -122.894524 5 8043ft 166kts
06-Nov-20 14:07 47.071945 -122.888172 5 8043ft 166kts
06-Nov-20 14:08 47.118387 -122.881830 5 8045ft 165kts
06-Nov-20 14:09 47.164734 -122.875482 5 8046ft 165kts
06-Nov-20 14:10 47.211496 -122.869067 5 8046ft 165kts
06-Nov-20 14:11 47.260021 -122.862379 6 7163ft 178kts
06-Nov-20 14:12 47.309336 -122.855567 6 5640ft 175kts
06-Nov-20 14:13 47.354948 -122.849291 5 5030ft 142kts
06-Nov-20 14:14 47.391151 -122.844246 6 5042ft 121kts
06-Nov-20 14:15 47.420057 -122.823620 89 5033ft 137kts
06-Nov-20 14:16 47.385482 -122.809403 185 5048ft 150kts
06-Nov-20 14:17 47.347728 -122.829317 255 5028ft 149kts
06-Nov-20 14:18 47.374822 -122.852135 5 5048ft 135kts
06-Nov-20 14:19 47.412605 -122.845906 27 5024ft 135kts
06-Nov-20 14:20 47.440578 -122.803094 45 4359ft 164kts
06-Nov-20 14:21 47.470878 -122.754735 45 3724ft 161kts
06-Nov-20 14:22 47.503854 -122.702251 44 2537ft 165kts
06-Nov-20 14:23 47.536880 -122.672826 354 2546ft 137kts
06-Nov-20 14:24 47.574986 -122.676460 354 2544ft 135kts
06-Nov-20 14:25 47.612804 -122.681422 354 2545ft 135kts
06-Nov-20 14:26 47.642264 -122.694430 301 2024ft 107kts
06-Nov-20 14:27 47.651683 -122.727716 179 1144ft 99kts
06-Nov-20 14:28 47.636171 -122.737539 353 974ft 80kts
06-Nov-20 14:29 47.655917 -122.733284 0 516ft 30kts
06-Nov-20 14:30 47.660033 -122.732310 114 523ft 2kts
06-Nov-20 14:31 47.659965 -122.732246 165 524ft 0kts
06-Nov-20 14:32 47.659965 -122.732246 165 524ft 0kts
06-Nov-20 14:33 47.659965 -122.732246 165 524ft 0kts
06-Nov-20 14:34 47.659965 -122.732246 165 524ft 0kts
06-Nov-20 14:35 47.659965 -122.732246 165 524ft 0kts
06-Nov-20 14:36 47.659965 -122.732246 165 524ft 0kts
06-Nov-20 14:37 47.659965 -122.732246 165 524ft 0kts
06-Nov-20 14:38 47.659965 -122.732246 165 524ft 0kts
06-Nov-20 14:39 47.659965 -122.732246 165 524ft 0kts
06-Nov-20 14:40 47.659965 -122.732246 165 524ft 0kts
06-Nov-20 14:41 47.659965 -122.732246 165 524ft 0kts
06-Nov-20 14:42 47.659965 -122.732246 165 524ft 0kts
06-Nov-20 14:43 47.659965 -122.732246 165 524ft 0kts
06-Nov-20 14:44 47.659965 -122.732246 165 524ft 0kts

Navigation Log

Ident Type
Flight plan parsing failed, navigation log unavailable